Time;durP1;ratioP1;P1;durP2;ratioP2;P2;SDS_P1;SDS_P2;PMS_P1;PMS_P2;Temp;Humidity;BMP_temperature;BMP_pressure;BME280_temperature;BME280_humidity;BME280_pressure;Samples;Min_cycle;Max_cycle;Signal;HPM_P1;HPM_P2
2023/10/16 00:01:26;;;;;;;2.57;1.40;;;9.00;90.00;;;10.62;62.17;101985.69;3082560;46;20444;-67
2023/10/16 00:03:58;;;;;;;6.37;1.67;;;9.00;90.00;;;10.62;62.35;101985.69;3082274;46;20435;-67
2023/10/16 00:06:26;;;;;;;4.27;1.53;;;9.00;90.00;;;10.62;62.48;101998.03;3081985;46;20427;-66
2023/10/16 00:09:00;;;;;;;3.43;1.20;;;9.00;90.10;;;10.60;62.51;101982.34;3082348;46;20455;-67
2023/10/16 00:11:28;;;;;;;6.13;1.30;;;9.00;90.10;;;10.57;62.48;101980.03;3082041;46;20463;-68
2023/10/16 00:13:57;;;;;;;5.07;1.37;;;9.00;90.10;;;10.55;62.53;101984.59;3082272;46;21104;-67
2023/10/16 00:16:28;;;;;;;6.03;2.53;;;8.90;90.10;;;10.54;62.39;101982.09;3082655;46;20471;-67
2023/10/16 00:18:57;;;;;;;3.00;2.07;;;8.90;90.20;;;10.53;62.64;101980.47;3082428;46;20440;-66
2023/10/16 00:21:28;;;;;;;4.00;1.23;;;8.90;90.20;;;10.54;62.82;101982.09;3082192;46;20497;-67
2023/10/16 00:23:56;;;;;;;6.13;1.60;;;8.90;90.30;;;10.54;62.96;101982.94;3082038;46;20427;-67
2023/10/16 00:26:25;;;;;;;3.00;1.23;;;8.90;90.70;;;10.55;62.69;101981.97;3081995;46;20456;-67
2023/10/16 00:29:07;;;;;;;3.23;1.40;;;8.90;90.40;;;10.57;62.90;101980.03;3081254;46;20459;-67
2023/10/16 00:31:39;;;;;;;3.43;1.20;;;8.90;90.50;;;10.56;62.68;101980.16;3082446;46;20436;-67
2023/10/16 00:34:09;;;;;;;7.53;1.53;;;8.90;90.50;;;10.57;62.87;101982.66;3081965;46;20562;-68
2023/10/16 00:36:38;;;;;;;5.03;1.60;;;8.90;90.50;;;10.56;62.90;101980.97;3082426;46;21070;-66
2023/10/16 00:39:12;;;;;;;5.70;1.37;;;8.90;90.50;;;10.55;62.82;101979.34;3081708;46;20439;-68
2023/10/16 00:41:46;;;;;;;4.03;1.77;;;8.90;90.50;;;10.53;62.94;101980.47;3082150;46;21092;-67
2023/10/16 00:44:16;;;;;;;4.97;1.77;;;8.90;90.50;;;10.51;62.92;101977.94;3081803;46;20427;-67
2023/10/16 00:46:48;;;;;;;5.47;1.30;;;8.90;90.50;;;10.50;62.92;101971.03;3081971;46;20553;-65
2023/10/16 00:49:18;;;;;;;3.17;1.30;;;8.80;90.50;;;10.50;62.87;101971.03;3081871;46;20472;-65
2023/10/16 00:51:49;;;;;;;5.07;1.73;;;8.90;90.60;;;10.50;63.14;101976.31;3081858;46;20495;-67
2023/10/16 00:54:28;;;;;;;4.83;1.50;;;8.90;90.70;;;10.49;63.27;101969.38;3081808;46;20470;-65
2023/10/16 00:56:58;;;;;;;3.20;1.37;;;8.80;90.70;;;10.47;63.18;101960.78;3080969;46;21075;-67
2023/10/16 00:59:28;;;;;;;4.23;1.37;;;8.80;90.60;;;10.46;63.10;101964.38;3080817;46;20463;-66
2023/10/16 01:04:41;;;;;;;2.00;1.30;;;8.80;90.70;;;10.44;63.71;101970.75;3081474;46;20440;-67
2023/10/16 01:07:14;;;;;;;2.70;1.50;;;8.80;90.80;;;10.42;63.49;101968.28;3081525;46;20431;-68
2023/10/16 01:09:46;;;;;;;4.70;1.40;;;8.80;90.70;;;10.41;63.48;101965.81;3081681;46;21061;-67
2023/10/16 01:12:15;;;;;;;3.57;1.27;;;8.80;90.80;;;10.41;63.51;101968.44;3081824;46;20451;-69
2023/10/16 01:14:44;;;;;;;1.73;1.37;;;8.80;90.90;;;10.42;63.62;101967.44;3081553;46;20454;-67
2023/10/16 01:17:13;;;;;;;5.73;1.80;;;8.80;91.00;;;10.43;63.64;101964.69;3081720;46;20476;-67
2023/10/16 01:19:44;;;;;;;3.97;1.53;;;8.80;91.10;;;10.47;63.77;101960.78;3081020;46;20585;-67
2023/10/16 01:22:14;;;;;;;6.83;1.80;;;8.80;91.10;;;10.48;63.61;101967.72;3081853;46;20514;-67
2023/10/16 01:24:45;;;;;;;2.97;1.30;;;8.80;91.20;;;10.51;63.70;101963.97;3081617;46;20510;-69
2023/10/16 01:27:25;;;;;;;3.33;1.50;;;8.80;91.20;;;10.53;64.00;101970.72;3081741;46;20427;-67
2023/10/16 01:29:57;;;;;;;7.17;1.50;;;8.80;91.20;;;10.53;63.71;101965.47;3081389;46;21052;-67
2023/10/16 01:32:26;;;;;;;1.50;1.00;;;8.80;91.20;;;10.55;63.86;101966.19;3081846;46;20646;-66
2023/10/16 01:34:56;;;;;;;3.53;1.13;;;8.80;91.30;;;10.55;64.04;101968.81;3081209;46;20452;-71
2023/10/16 01:37:25;;;;;;;5.53;1.63;;;8.90;91.30;;;10.56;64.07;101964.34;3081519;46;21015;-66
2023/10/16 01:40:15;;;;;;;5.97;1.13;;;8.90;91.30;;;10.57;63.99;101968.66;3080705;46;20592;-67
2023/10/16 01:42:43;;;;;;;3.70;1.10;;;8.90;91.30;;;10.57;63.86;101966.88;3081544;46;20428;-67
2023/10/16 01:45:14;;;;;;;2.80;1.20;;;8.90;91.30;;;10.59;64.06;101975.44;3081590;46;21002;-70
2023/10/16 01:47:43;;;;;;;5.37;1.77;;;8.90;91.30;;;10.61;63.93;101967.38;3081131;46;20595;-67
2023/10/16 01:50:20;;;;;;;2.57;1.27;;;8.90;91.40;;;10.64;64.08;101970.56;3080889;46;20445;-67
2023/10/16 01:52:50;;;;;;;2.50;1.40;;;8.90;91.50;;;10.69;64.11;101973.59;3081430;46;20432;-67
2023/10/16 01:55:19;;;;;;;6.20;1.40;;;8.90;91.50;;;10.75;64.17;101972.19;3081458;46;20427;-67
2023/10/16 01:57:47;;;;;;;2.30;1.50;;;9.00;91.70;;;10.81;64.38;101969.81;3081048;46;21057;-68
2023/10/16 02:00:17;;;;;;;4.40;1.10;;;9.00;91.70;;;10.86;64.14;101983.34;3080782;46;21002;-67
2023/10/16 02:02:46;;;;;;;4.13;1.67;;;9.00;91.70;;;10.92;64.18;101986.38;3081406;46;20427;-67
2023/10/16 02:05:15;;;;;;;7.57;1.97;;;9.10;91.70;;;10.96;64.31;101988.56;3081113;46;20431;-67
2023/10/16 02:07:45;;;;;;;5.63;1.70;;;9.10;91.80;;;11.03;64.43;101994.13;3081248;46;20435;-67
2023/10/16 02:10:13;;;;;;;7.73;1.80;;;9.20;91.80;;;11.07;64.24;101983.13;3080802;46;21137;-67
2023/10/16 02:12:42;;;;;;;6.57;1.70;;;9.20;91.80;;;11.13;64.29;101981.69;3080675;46;20992;-69
2023/10/16 02:15:14;;;;;;;4.43;1.60;;;9.20;91.80;;;11.17;64.10;101980.44;3080718;46;20432;-66
2023/10/16 02:17:42;;;;;;;4.33;1.20;;;9.30;91.80;;;11.21;64.03;101976.53;3081101;46;20505;-67
2023/10/16 02:20:11;;;;;;;5.07;1.67;;;9.40;91.80;;;11.25;64.08;101977.88;3080599;46;20530;-67
2023/10/16 02:22:40;;;;;;;3.20;1.20;;;9.40;91.70;;;11.27;64.05;101975.91;3080860;46;20439;-67
2023/10/16 02:25:09;;;;;;;6.57;1.63;;;9.50;91.70;;;11.26;64.08;101969.84;3081176;46;20451;-67
2023/10/16 02:27:37;;;;;;;3.07;1.07;;;9.50;91.70;;;11.26;64.08;101964.56;3081142;46;20992;-67
2023/10/16 02:30:28;;;;;;;3.40;1.53;;;9.50;91.60;;;11.27;64.13;101965.38;3080959;46;20439;-68
2023/10/16 02:33:10;;;;;;;5.13;1.60;;;9.50;91.60;;;11.29;64.26;101966.09;3083196;46;20481;-69
2023/10/16 02:35:48;;;;;;;3.13;1.70;;;9.50;91.70;;;11.28;64.24;101967.06;3083625;46;20489;-66
2023/10/16 02:38:23;;;;;;;4.70;1.30;;;9.50;91.60;;;11.28;64.07;101962.63;3082768;46;20475;-69
2023/10/16 02:40:53;;;;;;;4.27;1.40;;;9.50;91.60;;;11.28;64.10;101972.31;3083272;46;20467;-68
2023/10/16 02:43:22;;;;;;;5.47;1.43;;;9.60;91.50;;;11.28;64.20;101967.06;3082918;46;20461;-67
2023/10/16 02:45:53;;;;;;;3.10;1.13;;;9.60;91.50;;;11.29;64.03;101974.00;3083487;46;20431;-66
2023/10/16 02:48:22;;;;;;;3.63;1.73;;;9.60;91.50;;;11.28;64.18;101974.97;3082960;46;20431;-65
2023/10/16 02:50:54;;;;;;;5.43;1.13;;;9.60;91.50;;;11.28;64.28;101972.31;3082998;46;21235;-68
2023/10/16 02:53:27;;;;;;;2.77;1.50;;;9.60;91.60;;;11.28;64.10;101967.06;3082872;46;20438;-67
2023/10/16 02:56:03;;;;;;;3.60;1.00;;;9.60;91.60;;;11.29;64.16;101974.00;3083306;46;20430;-67
2023/10/16 02:58:32;;;;;;;4.73;1.53;;;9.60;91.50;;;11.29;64.13;101974.00;3082313;46;20423;-68
2023/10/16 03:01:06;;;;;;;2.60;1.00;;;9.60;91.50;;;11.30;64.12;101975.63;3082959;46;21132;-67
2023/10/16 03:03:34;;;;;;;3.73;1.53;;;9.60;91.60;;;11.31;64.26;101979.94;3082298;46;21006;-67
2023/10/16 03:06:03;;;;;;;3.57;1.30;;;9.60;91.60;;;11.31;64.21;101985.22;3083429;46;20426;-65
2023/10/16 03:08:32;;;;;;;5.87;1.23;;;9.60;91.60;;;11.29;64.29;101979.25;3082612;46;20426;-69
2023/10/16 03:11:05;;;;;;;3.23;1.27;;;9.60;91.60;;;11.30;64.23;101980.91;3082141;46;21028;-68
2023/10/16 03:13:37;;;;;;;6.80;1.40;;;9.60;91.60;;;11.26;64.28;101977.75;3082749;46;20464;-68
2023/10/16 03:16:16;;;;;;;4.93;1.67;;;9.60;91.60;;;11.24;64.19;101976.25;3082816;46;20457;-68
2023/10/16 03:18:47;;;;;;;1.73;1.10;;;9.60;91.50;;;11.20;64.30;101972.22;3082593;46;20432;-67
2023/10/16 03:23:46;;;;;;;2.23;1.13;;;9.50;91.60;;;11.15;64.53;101966.59;3081313;46;20515;-68
2023/10/16 03:26:25;;;;;;;5.40;1.83;;;9.50;91.60;;;11.13;64.53;101972.00;3082612;46;20431;-67
2023/10/16 03:29:02;;;;;;;5.43;1.13;;;9.50;91.60;;;11.12;64.42;101970.34;3081261;46;20588;-67
2023/10/16 03:31:36;;;;;;;7.70;1.40;;;9.50;91.60;;;11.10;64.75;101967.00;3082342;46;20427;-66
2023/10/16 03:34:05;;;;;;;5.03;1.30;;;9.50;91.70;;;11.08;64.65;101961.06;3082349;46;20536;-67
2023/10/16 03:36:37;;;;;;;1.93;1.33;;;9.40;91.70;;;11.09;64.75;101956.63;3082667;46;20473;-67
2023/10/16 03:39:08;;;;;;;1.77;1.07;;;9.40;91.70;;;11.11;64.64;101959.94;3082240;46;20560;-66
2023/10/16 03:41:39;;;;;;;3.10;1.30;;;9.40;91.80;;;11.12;64.59;101961.63;3082340;46;20426;-67
2023/10/16 03:44:13;;;;;;;2.73;0.90;;;9.40;91.80;;;11.11;64.74;101957.31;3082847;46;20455;-66
2023/10/16 03:46:42;;;;;;;3.20;1.10;;;9.40;91.90;;;11.10;64.74;101963.56;3082707;46;20992;-67
2023/10/16 03:49:14;;;;;;;2.17;1.37;;;9.40;91.90;;;11.10;64.83;101964.38;3082048;46;20462;-69
2023/10/16 03:51:44;;;;;;;3.00;1.20;;;9.40;91.90;;;11.11;64.90;101970.47;3081104;46;21013;-65
2023/10/16 03:54:14;;;;;;;3.87;1.40;;;9.40;92.00;;;11.12;65.11;101972.16;3082423;46;20510;-67
2023/10/16 03:56:42;;;;;;;3.80;1.37;;;9.40;92.10;;;11.14;64.95;101967.56;3082283;46;20458;-66
2023/10/16 03:59:11;;;;;;;4.33;1.77;;;9.40;92.10;;;11.19;65.20;101973.22;3081975;46;21007;-67
2023/10/16 04:01:42;;;;;;;3.23;1.03;;;9.40;92.20;;;11.23;64.99;101975.41;3082560;46;20458;-66
2023/10/16 04:04:13;;;;;;;6.43;1.53;;;9.50;92.30;;;11.28;65.12;101978.44;3082307;46;20431;-67
2023/10/16 04:06:41;;;;;;;7.33;1.80;;;9.50;92.30;;;11.34;65.05;101976.97;3082353;46;20428;-67
2023/10/16 04:09:10;;;;;;;7.90;2.43;;;9.50;92.40;;;11.41;65.01;101975.44;3082186;46;20444;-66
2023/10/16 04:11:38;;;;;;;6.47;1.37;;;9.60;92.50;;;11.48;65.02;101973.88;3082202;46;20459;-68
2023/10/16 04:14:09;;;;;;;5.20;1.83;;;9.60;92.50;;;11.55;65.05;101974.91;3082404;46;20508;-68
2023/10/16 04:16:43;;;;;;;2.87;1.20;;;9.70;92.50;;;11.60;64.94;101977.91;3082500;46;20445;-67
2023/10/16 04:21:53;;;;;;;2.57;1.80;;;9.80;92.40;;;11.67;64.99;101978.97;3081997;46;20451;-67
2023/10/16 04:27:42;;;;;;;5.53;1.60;;;9.90;92.50;;;11.79;64.91;101979.63;3082364;46;20452;-67
2023/10/16 04:30:11;;;;;;;4.43;1.87;;;9.90;92.40;;;11.81;64.65;101981.13;3080864;46;20468;-67
2023/10/16 04:32:42;;;;;;;3.97;1.40;;;10.00;92.10;;;11.84;64.87;101986.06;3082178;46;20431;-67
2023/10/16 04:38:52;;;;;;;2.80;1.17;;;10.00;91.70;;;11.84;64.69;101980.81;3080816;46;20428;-68
2023/10/16 04:42:50;;;;;;;2.13;1.37;;;10.10;91.70;;;11.83;65.02;101984.44;3080714;46;20429;-67
2023/10/16 04:44:49;;;;;;;5.70;1.73;;;10.10;91.80;;;11.84;64.70;101983.44;3082464;46;20448;-68
2023/10/16 04:47:19;;;;;;;3.90;2.10;;;10.10;91.70;;;11.85;64.76;101995.66;3082181;46;21006;-67
2023/10/16 04:49:59;;;;;;;2.33;1.70;;;10.10;91.80;;;11.92;65.21;101993.25;3081286;46;20464;-67
2023/10/16 04:53:06;;;;;;;3.50;1.50;;;10.10;91.90;;;11.98;65.21;101987.38;3081323;46;20456;-67
2023/10/16 05:03:56;;;;;;;4.17;1.20;;;10.30;91.90;;;11.92;64.92;101954.50;3081513;46;20979;-68
2023/10/16 05:06:38;;;;;;;3.97;1.43;;;10.20;91.80;;;11.86;65.08;101954.28;3081943;46;20427;-67
2023/10/16 05:20:52;;;;;;;2.17;1.10;;;10.10;92.00;;;11.67;65.46;101947.31;3081099;46;21060;-66
2023/10/16 06:15:50;;;;;;;2.70;2.03;;;10.10;92.80;;;11.89;66.46;101967.16;3081260;46;20482;-68
2023/10/16 06:18:19;;;;;;;2.17;1.80;;;10.20;92.90;;;11.95;66.91;101967.41;3080681;46;20549;-69
2023/10/16 06:20:48;;;;;;;3.13;1.90;;;10.20;93.10;;;12.05;67.50;101972.59;3080477;46;21043;-66
2023/10/16 06:23:20;;;;;;;3.87;2.43;;;10.20;93.30;;;12.10;66.61;101973.75;3080807;46;20969;-67
2023/10/16 06:25:48;;;;;;;2.43;1.57;;;10.30;93.10;;;12.12;66.73;101974.44;3080930;46;20427;-69
2023/10/16 06:28:17;;;;;;;3.63;1.57;;;10.30;93.00;;;12.14;66.50;101972.50;3080727;46;21096;-68
2023/10/16 06:30:45;;;;;;;3.43;1.70;;;10.30;92.90;;;12.17;66.65;101972.16;3080015;46;20459;-66
2023/10/16 06:33:14;;;;;;;3.30;1.50;;;10.40;92.90;;;12.18;66.40;101963.28;3080902;46;20434;-67
2023/10/16 06:35:43;;;;;;;3.83;1.87;;;10.40;92.80;;;12.23;66.41;101976.84;3080897;46;20428;-67
2023/10/16 06:38:14;;;;;;;2.80;1.73;;;10.40;92.90;;;12.27;66.42;101979.13;3080776;46;20427;-65
2023/10/16 06:40:44;;;;;;;3.20;1.57;;;10.40;92.90;;;12.31;66.15;101972.59;3079993;46;20960;-67
2023/10/16 06:43:25;;;;;;;3.10;1.77;;;10.50;92.90;;;12.32;66.35;101979.50;3080347;46;21093;-67
2023/10/16 06:45:58;;;;;;;3.10;1.60;;;10.50;92.80;;;12.33;66.28;101987.28;3081019;46;20427;-67
2023/10/16 06:48:27;;;;;;;5.67;1.60;;;10.50;92.70;;;12.37;66.40;101993.06;3079696;46;20456;-67
2023/10/16 06:51:03;;;;;;;3.27;1.77;;;10.50;92.70;;;12.42;66.19;101993.44;3079357;46;20519;-67
2023/10/16 06:53:34;;;;;;;4.30;1.53;;;10.60;92.80;;;12.43;66.11;102006.47;3080448;46;21000;-68
2023/10/16 06:56:03;;;;;;;4.40;1.80;;;10.60;92.60;;;12.45;66.12;101995.78;3079419;46;21110;-67
2023/10/16 06:58:34;;;;;;;2.77;1.67;;;10.60;92.60;;;12.49;65.94;102002.41;3080020;46;20431;-67
2023/10/16 07:01:03;;;;;;;2.90;2.00;;;10.60;92.60;;;12.56;66.15;102004.25;3080118;46;20459;-69
2023/10/16 07:03:33;;;;;;;4.40;1.73;;;10.70;92.90;;;12.67;66.28;102001.34;3080265;46;20485;-67
2023/10/16 07:06:05;;;;;;;4.43;1.80;;;10.80;93.00;;;12.78;65.95;102002.91;3079818;46;20482;-68
2023/10/16 07:08:33;;;;;;;3.37;1.73;;;10.80;92.80;;;12.83;65.60;102005.91;3080063;46;20430;-66
2023/10/16 07:11:11;;;;;;;1.87;1.60;;;10.90;92.60;;;12.85;65.45;101998.66;3079920;46;20463;-67
2023/10/16 07:13:40;;;;;;;3.20;1.87;;;11.00;92.50;;;12.85;65.06;101999.47;3079802;46;20523;-67
2023/10/16 07:16:09;;;;;;;3.00;1.80;;;11.00;92.30;;;12.83;65.07;101995.34;3080756;46;20447;-67
2023/10/16 07:18:42;;;;;;;4.47;1.93;;;11.00;92.30;;;12.82;64.94;101998.94;3082202;46;20926;-67
2023/10/16 07:21:17;;;;;;;2.30;1.70;;;11.00;92.20;;;12.79;64.97;101992.16;3082229;46;21046;-67
2023/10/16 07:23:46;;;;;;;4.37;1.80;;;11.00;92.20;;;12.79;65.10;102004.53;3082757;46;21110;-69
2023/10/16 07:26:17;;;;;;;2.43;1.87;;;10.90;92.20;;;12.82;65.22;101998.94;3081769;46;21123;-67
2023/10/16 07:28:48;;;;;;;3.70;2.10;;;11.00;92.70;;;12.88;65.45;101999.13;3082186;46;20450;-65
2023/10/16 07:31:17;;;;;;;2.10;1.53;;;11.00;92.50;;;12.98;65.24;101999.00;3082364;46;20427;-67
2023/10/16 07:33:50;;;;;;;3.97;2.03;;;11.10;92.50;;;13.01;65.04;102009.28;3082489;46;20454;-66
2023/10/16 07:36:19;;;;;;;2.93;2.20;;;11.10;92.20;;;12.98;64.84;102001.66;3083021;46;20905;-66
2023/10/16 07:38:48;;;;;;;3.13;1.80;;;11.20;92.00;;;12.98;65.23;102003.50;3082520;46;20444;-68
2023/10/16 07:41:23;;;;;;;2.30;1.60;;;11.20;92.10;;;13.02;65.05;101999.53;3082569;46;20501;-67
2023/10/16 07:43:57;;;;;;;4.40;1.77;;;11.20;92.10;;;13.09;64.98;102006.72;3082580;46;20991;-67
2023/10/16 07:46:28;;;;;;;5.57;2.03;;;11.30;92.00;;;13.20;65.04;102014.34;3082865;46;20460;-67
2023/10/16 07:49:01;;;;;;;3.93;2.07;;;11.30;92.10;;;13.31;64.47;102021.16;3082158;46;20432;-67
2023/10/16 07:51:30;;;;;;;3.60;2.00;;;11.30;91.90;;;13.36;64.20;102021.53;3082944;46;20433;-66
2023/10/16 07:54:00;;;;;;;3.57;1.93;;;11.40;91.80;;;13.33;64.10;102025.31;3082979;46;20452;-67
2023/10/16 07:56:32;;;;;;;4.20;2.00;;;11.40;91.70;;;13.32;63.97;102022.81;3082628;46;20436;-69
2023/10/16 07:59:19;;;;;;;5.70;2.33;;;11.40;91.60;;;13.31;64.16;102029.91;3081845;43;20518;-67
2023/10/16 08:01:57;;;;;;;4.90;1.93;;;11.40;91.70;;;13.28;64.06;102032.91;3082499;46;20456;-67
2023/10/16 08:07:16;;;;;;;5.20;2.37;;;11.40;91.60;;;13.26;64.25;102034.88;3080779;46;21107;-69
2023/10/16 08:09:57;;;;;;;3.70;2.20;;;11.40;91.90;;;13.30;64.38;102041.50;3081806;46;20524;-67
2023/10/16 08:15:14;;;;;;;3.97;1.73;;;11.50;92.10;;;13.42;64.78;102034.91;3082529;46;20423;-68
2023/10/16 08:17:46;;;;;;;1.70;1.60;;;11.50;92.10;;;13.46;64.14;102036.25;3081445;46;20463;-68
2023/10/16 08:20:17;;;;;;;4.23;1.73;;;11.50;91.80;;;13.43;64.00;102039.19;3080864;43;21198;-69
2023/10/16 08:22:48;;;;;;;4.07;1.83;;;11.60;91.70;;;13.38;64.14;102038.84;3081701;46;21018;-69
2023/10/16 08:25:32;;;;;;;2.60;1.67;;;11.60;91.70;;;13.37;64.18;102042.50;3079616;46;20494;-67
2023/10/16 08:28:19;;;;;;;4.47;2.00;;;11.50;91.70;;;13.42;64.06;102040.22;3079726;46;20431;-69
2023/10/16 08:33:17;;;;;;;4.13;2.33;;;11.60;92.10;;;13.60;63.79;102049.84;3081371;46;20462;-67
2023/10/16 08:35:45;;;;;;;4.83;2.97;;;11.60;92.00;;;13.58;63.63;102045.53;3082030;46;20563;-67
2023/10/16 08:38:20;;;;;;;5.73;1.93;;;11.60;91.90;;;13.57;63.81;102049.16;3081677;46;20467;-67
2023/10/16 08:40:57;;;;;;;5.00;2.43;;;11.60;91.80;;;13.55;64.04;102051.13;3081236;46;21205;-67
2023/10/16 08:43:53;;;;;;;4.80;3.03;;;11.60;91.90;;;13.56;64.34;102055.47;3081490;46;21082;-68
2023/10/16 08:46:32;;;;;;;6.83;2.50;;;11.70;92.10;;;13.62;64.23;102055.81;3081937;46;20477;-67
2023/10/16 08:49:02;;;;;;;3.00;1.47;;;11.70;92.30;;;13.67;64.50;102053.50;3081097;46;20435;-69
2023/10/16 08:51:31;;;;;;;2.33;1.63;;;11.80;92.10;;;13.67;64.09;102051.66;3081693;46;20437;-68
2023/10/16 08:54:02;;;;;;;4.80;3.10;;;11.80;92.00;;;13.67;63.86;102059.59;3080786;46;20471;-67
2023/10/16 08:56:32;;;;;;;3.37;1.80;;;11.80;92.00;;;13.71;63.98;102057.47;3081402;43;20447;-68
2023/10/16 08:59:01;;;;;;;4.00;2.70;;;11.90;92.00;;;13.74;64.35;102057.16;3081364;46;20472;-68
2023/10/16 09:01:32;;;;;;;4.93;2.83;;;11.90;92.00;;;13.81;64.41;102055.50;3079967;46;20467;-69
2023/10/16 09:04:07;;;;;;;3.40;2.07;;;11.90;92.20;;;13.88;63.83;102061.81;3080242;46;21469;-69
2023/10/16 09:06:37;;;;;;;3.87;2.40;;;11.90;92.00;;;13.94;63.83;102061.97;3082033;46;20572;-67
2023/10/16 09:09:13;;;;;;;6.03;2.50;;;12.00;92.00;;;14.01;64.00;102070.91;3080940;46;20555;-67
2023/10/16 09:11:45;;;;;;;4.60;2.83;;;12.00;91.90;;;14.10;63.95;102066.44;3080885;46;20427;-67
2023/10/16 09:14:17;;;;;;;5.00;2.20;;;12.10;92.10;;;14.19;63.89;102068.94;3081794;46;20527;-67
2023/10/16 09:16:51;;;;;;;3.63;2.73;;;12.10;92.00;;;14.27;63.68;102068.13;3080024;46;20431;-69
2023/10/16 09:19:20;;;;;;;4.60;3.13;;;12.20;91.90;;;14.35;63.34;102054.91;3079490;46;20459;-67
2023/10/16 09:21:53;;;;;;;4.53;2.83;;;12.20;92.00;;;14.50;63.28;102058.53;3079535;46;20503;-67
2023/10/16 09:24:22;;;;;;;4.33;3.13;;;12.30;92.10;;;14.71;63.13;102050.88;3081075;46;20427;-65
2023/10/16 09:26:54;;;;;;;5.60;2.57;;;12.40;92.20;;;14.88;62.50;102063.09;3080895;46;20423;-67
2023/10/16 09:29:27;;;;;;;3.97;2.30;;;12.60;91.90;;;15.00;61.90;102070.69;3079354;46;20467;-67
2023/10/16 09:31:57;;;;;;;2.70;2.40;;;12.70;91.60;;;15.06;61.91;102059.41;3080850;46;20565;-67
2023/10/16 09:34:27;;;;;;;3.63;2.40;;;12.80;91.40;;;15.12;61.99;102070.13;3081533;46;20431;-68
2023/10/16 09:37:15;;;;;;;3.77;2.30;;;12.90;91.30;;;15.28;61.61;102069.25;3081651;46;20561;-69
2023/10/16 09:39:48;;;;;;;3.40;2.10;;;13.00;91.20;;;15.29;60.63;102081.50;3080622;46;20454;-68
2023/10/16 09:42:27;;;;;;;5.47;2.10;;;13.10;90.70;;;15.22;60.55;102070.78;3080954;46;20447;-69
2023/10/16 09:44:59;;;;;;;5.40;2.10;;;13.10;90.50;;;15.17;60.59;102066.97;3080217;43;20452;-67
2023/10/16 09:47:31;;;;;;;4.90;2.53;;;13.10;90.40;;;15.16;60.92;102073.28;3080731;46;20489;-68
2023/10/16 09:50:16;;;;;;;5.03;2.40;;;13.10;90.50;;;15.18;60.73;102073.94;3080554;46;20452;-67
2023/10/16 09:52:46;;;;;;;2.47;2.20;;;13.10;90.40;;;15.23;60.76;102071.59;3081206;46;20517;-68
2023/10/16 09:55:19;;;;;;;4.83;2.30;;;13.20;90.50;;;15.28;60.61;102064.78;3081185;46;21082;-68
2023/10/16 09:57:54;;;;;;;8.03;2.10;;;13.20;90.50;;;15.33;60.62;102059.78;3081242;46;20550;-67
2023/10/16 10:00:30;;;;;;;5.10;2.23;;;13.20;90.30;;;15.40;60.20;102063.38;3079476;46;21004;-69
2023/10/16 10:03:05;;;;;;;10.07;8.60;;;13.20;90.30;;;15.51;60.08;102059.56;3080519;46;20510;-68
2023/10/16 10:05:49;;;;;;;4.70;2.77;;;13.30;90.40;;;15.66;59.92;102057.81;3080151;43;20427;-67
2023/10/16 10:08:52;;;;;;;7.10;3.70;;;13.40;90.40;;;15.81;59.82;102061.38;3080892;46;20534;-68
2023/10/16 10:11:39;;;;;;;4.10;2.20;;;13.50;90.30;;;15.87;59.06;102054.53;3078654;46;20468;-68
2023/10/16 10:14:39;;;;;;;4.80;2.13;;;13.60;89.80;;;15.96;59.03;102064.09;3077203;46;20447;-67
2023/10/16 10:17:19;;;;;;;5.63;2.57;;;13.70;89.80;;;16.13;58.37;102065.63;3078222;46;20530;-69
2023/10/16 10:19:54;;;;;;;3.43;1.90;;;13.80;89.60;;;16.24;58.10;102068.69;3077883;43;20459;-69
2023/10/16 10:22:27;;;;;;;3.20;2.03;;;13.90;88.70;;;16.27;57.94;102078.13;3078291;46;21379;-69
2023/10/16 10:25:39;;;;;;;3.03;2.37;;;14.00;87.90;;;16.19;57.86;102068.38;3079167;46;20449;-69
2023/10/16 10:28:28;;;;;;;9.07;5.33;;;14.00;87.30;;;16.21;57.11;102071.69;3080467;46;21008;-70
2023/10/16 10:31:04;;;;;;;5.80;3.27;;;14.10;87.00;;;16.22;57.04;102065.38;3079802;46;20443;-68
2023/10/16 10:33:51;;;;;;;3.67;2.17;;;14.10;86.40;;;16.30;57.35;102067.16;3080085;46;20439;-68
2023/10/16 10:36:43;;;;;;;4.03;2.10;;;14.10;86.90;;;16.35;57.07;102067.44;3080496;46;21125;-69
2023/10/16 10:39:29;;;;;;;3.83;2.80;;;14.20;86.20;;;16.36;56.64;102068.25;3079511;46;20462;-68
2023/10/16 10:42:08;;;;;;;2.37;1.40;;;14.20;85.90;;;16.39;56.62;102065.25;3079625;46;20432;-71
2023/10/16 10:45:17;;;;;;;3.53;2.00;;;14.30;85.40;;;16.34;55.89;102067.59;3080561;46;20462;-70
2023/10/16 10:47:46;;;;;;;1.40;1.30;;;14.20;84.30;;;16.32;55.74;102064.31;3080646;43;20433;-68
2023/10/16 10:50:14;;;;;;;1.67;1.30;;;14.20;83.90;;;16.20;55.44;102066.56;3078691;46;21105;-70
2023/10/16 10:52:46;;;;;;;3.47;2.00;;;14.20;83.20;;;16.10;55.81;102069.47;3081396;46;20476;-69
2023/10/16 10:55:22;;;;;;;2.13;1.63;;;14.20;83.40;;;16.01;56.05;102069.69;3083138;46;20493;-71
2023/10/16 10:57:58;;;;;;;3.53;1.63;;;14.10;83.70;;;15.89;55.92;102071.09;3083643;46;20506;-69
2023/10/16 11:05:30;;;;;;;2.53;2.33;;;13.90;85.30;;;15.60;57.20;102077.09;3081695;46;20455;-68
2023/10/16 11:10:42;;;;;;;2.23;1.90;;;13.70;86.40;;;15.46;57.64;102072.53;3079827;46;20484;-69
2023/10/16 11:13:14;;;;;;;5.47;2.03;;;13.70;86.80;;;15.43;58.46;102075.47;3082105;46;20455;-68
2023/10/16 11:15:55;;;;;;;1.60;1.20;;;13.60;87.30;;;15.39;58.52;102076.84;3082643;46;20587;-69
2023/10/16 11:18:26;;;;;;;4.47;2.10;;;13.50;87.30;;;15.43;58.21;102076.31;3081342;46;21023;-69
2023/10/16 11:21:03;;;;;;;3.13;2.00;;;13.50;87.80;;;15.58;58.92;102079.09;3081769;46;20442;-71
2023/10/16 11:23:38;;;;;;;2.20;1.70;;;13.50;88.70;;;15.77;58.51;102068.03;3082894;46;20426;-69
2023/10/16 11:26:12;;;;;;;4.57;1.87;;;13.60;88.80;;;15.93;57.86;102062.59;3082173;46;20556;-68
2023/10/16 11:28:40;;;;;;;1.90;1.10;;;13.70;88.70;;;16.09;57.71;102062.47;3082677;46;20431;-70
2023/10/16 11:31:12;;;;;;;2.07;1.40;;;13.70;88.40;;;16.20;57.16;102062.09;3082050;46;20448;-68
2023/10/16 11:33:47;;;;;;;2.20;1.13;;;13.80;87.10;;;16.36;57.09;102054.97;3082015;46;20423;-69
2023/10/16 11:36:23;;;;;;;3.80;1.53;;;14.00;87.30;;;16.47;56.40;102060.69;3082701;46;21089;-68
2023/10/16 11:38:53;;;;;;;2.97;1.50;;;14.10;85.80;;;16.50;56.03;102060.31;3080042;44;20545;-69
2023/10/16 11:41:24;;;;;;;3.83;1.70;;;14.20;85.20;;;16.48;55.36;102064.16;3081892;46;20447;-67
2023/10/16 11:43:54;;;;;;;2.60;1.37;;;14.20;84.10;;;16.41;55.25;102055.25;3081789;46;21095;-68
2023/10/16 11:46:39;;;;;;;3.07;1.57;;;14.20;83.30;;;16.38;55.28;102052.97;3082414;46;20670;-68
2023/10/16 11:52:23;;;;;;;5.43;1.90;;;14.30;83.90;;;16.39;55.55;102049.28;3080997;46;20451;-67
2023/10/16 11:54:58;;;;;;;5.03;3.40;;;14.30;83.90;;;16.38;55.24;102053.78;3081934;46;20456;-69
2023/10/16 11:57:27;;;;;;;3.50;1.73;;;14.30;83.70;;;16.34;55.14;102047.19;3080305;46;20443;-68
2023/10/16 11:59:56;;;;;;;2.33;1.27;;;14.30;83.40;;;16.29;55.38;102049.53;3080042;46;20499;-69
2023/10/16 12:02:29;;;;;;;2.40;1.50;;;14.30;83.50;;;16.20;55.39;102053.28;3081335;46;20443;-69
2023/10/16 12:05:05;;;;;;;3.17;1.90;;;14.30;83.30;;;16.08;55.60;102047.56;3082164;46;20427;-69
2023/10/16 12:07:35;;;;;;;2.10;1.30;;;14.20;83.40;;;16.02;56.03;102053.56;3082079;46;20431;-67
2023/10/16 12:10:05;;;;;;;3.73;1.77;;;14.20;83.90;;;16.00;56.35;102055.59;3080556;46;20582;-68
2023/10/16 12:12:34;;;;;;;2.07;1.37;;;14.10;84.60;;;15.96;56.01;102043.69;3081663;46;20427;-69
2023/10/16 12:15:03;;;;;;;3.23;1.37;;;14.10;84.50;;;15.93;56.46;102045.84;3082433;46;21001;-70
2023/10/16 12:17:32;;;;;;;4.23;1.73;;;14.00;84.70;;;15.90;56.24;102049.69;3081745;46;21058;-66
2023/10/16 12:20:10;;;;;;;2.63;1.00;;;14.00;85.20;;;15.89;56.67;102048.03;3080605;46;20478;-69
2023/10/16 12:22:39;;;;;;;1.60;1.17;;;14.00;85.20;;;15.85;56.34;102046.75;3082366;46;20453;-67
2023/10/16 12:25:10;;;;;;;2.27;1.20;;;13.90;84.40;;;15.86;56.71;102043.06;3081813;46;20455;-69
2023/10/16 12:27:39;;;;;;;1.97;1.20;;;13.90;84.90;;;15.90;56.58;102043.56;3081198;46;20517;-68